createdAt,value
2022-11-29T03:39:10.756Z,1.40
2022-11-29T03:42:05.168Z,1.40
2022-11-29T03:45:19.286Z,1.40
2022-11-29T03:48:24.988Z,1.40
2022-11-29T03:51:52.657Z,1.40
2022-11-29T03:55:08.584Z,1.30
2022-11-29T03:58:27.296Z,1.30
2022-11-29T04:01:25.860Z,1.30
2022-11-29T04:05:09.593Z,1.30
2022-11-29T04:08:39.081Z,1.30
2022-11-29T04:12:02.908Z,1.20
2022-11-29T04:15:33.860Z,1.20
2022-11-29T04:19:46.692Z,1.20
2022-11-29T04:23:37.859Z,1.20
2022-11-29T04:27:06.076Z,1.20
2022-11-29T04:29:51.369Z,1.20
2022-11-29T04:33:23.661Z,1.20
2022-11-29T04:36:50.439Z,1.20
2022-11-29T04:40:06.876Z,1.20
2022-11-29T04:43:35.928Z,1.20
2022-11-29T04:46:47.966Z,1.10
2022-11-29T04:50:15.604Z,1.20
2022-11-29T04:53:25.092Z,1.10
2022-11-29T04:57:11.605Z,1.10
2022-11-29T05:00:31.215Z,1.10
2022-11-29T05:03:49.335Z,1.20
2022-11-29T05:07:01.664Z,1.10
2022-11-29T05:10:39.153Z,1.10
2022-11-29T05:13:58.984Z,1.10
2022-11-29T05:17:25.256Z,1.10
2022-11-29T05:20:48.278Z,1.10
2022-11-29T05:24:27.481Z,1.10
2022-11-29T05:27:48.997Z,1.10
2022-11-29T05:31:33.668Z,1.10
2022-11-29T05:35:09.065Z,1.10
2022-11-29T05:38:02.242Z,1.10
2022-11-29T05:41:52.153Z,1.10
2022-11-29T05:44:57.005Z,1.10
2022-11-29T05:48:03.427Z,1.10
2022-11-29T05:51:21.932Z,1.10
2022-11-29T05:54:46.036Z,1.10
2022-11-29T05:58:14.868Z,1.10
2022-11-29T06:01:19.787Z,1.10
2022-11-29T06:04:23.381Z,1.10
2022-11-29T06:07:29.786Z,1.10
2022-11-29T06:10:22.830Z,1.10
2022-11-29T06:13:54.226Z,1.10
2022-11-29T06:17:44.597Z,1.10
2022-11-29T06:21:17.660Z,1.10
2022-11-29T06:24:26.237Z,1.20
2022-11-29T06:27:59.095Z,1.20
2022-11-29T06:31:15.524Z,1.10
2022-11-29T06:34:09.812Z,1.20
2022-11-29T06:37:13.677Z,1.20
2022-11-29T06:39:59.725Z,1.20
2022-11-29T06:42:45.483Z,1.20
2022-11-29T06:45:31.681Z,1.10
2022-11-29T06:48:27.919Z,1.10
2022-11-29T06:51:37.574Z,1.10
2022-11-29T06:54:53.266Z,1.10
2022-11-29T06:57:53.626Z,1.10
2022-11-29T07:01:03.609Z,1.10
2022-11-29T07:04:16.524Z,1.10
2022-11-29T07:07:02.582Z,1.10
2022-11-29T07:09:52.310Z,1.00
2022-11-29T07:12:38.434Z,1.10
2022-11-29T07:15:25.225Z,1.10
2022-11-29T07:18:47.516Z,1.10
2022-11-29T07:22:25.836Z,1.10
2022-11-29T07:25:42.762Z,1.10
2022-11-29T07:29:08.418Z,1.10
2022-11-29T07:32:34.103Z,1.10
2022-11-29T07:35:41.335Z,1.10
2022-11-29T07:38:44.150Z,1.10
2022-11-29T07:42:17.612Z,1.10
2022-11-29T07:45:33.016Z,1.10
2022-11-29T07:48:18.994Z,1.00
2022-11-29T07:51:04.905Z,1.00
2022-11-29T07:53:50.701Z,1.10
2022-11-29T07:56:36.236Z,1.10
2022-11-29T07:59:21.567Z,1.00
2022-11-29T08:02:11.721Z,1.00
2022-11-29T08:04:58.195Z,1.00
2022-11-29T08:07:43.942Z,1.00
2022-11-29T08:10:29.955Z,1.00
2022-11-29T08:13:15.719Z,1.10
2022-11-29T08:16:01.411Z,1.10
2022-11-29T08:18:46.699Z,1.20
2022-11-29T08:21:32.330Z,1.10
2022-11-29T08:24:17.783Z,1.10
2022-11-29T08:27:03.305Z,1.10
2022-11-29T08:29:48.704Z,1.10
2022-11-29T08:32:34.880Z,1.10
2022-11-29T08:35:23.572Z,1.10
2022-11-29T08:38:09.147Z,1.10
2022-11-29T08:40:54.728Z,1.10
2022-11-29T08:43:40.881Z,1.10
2022-11-29T08:46:26.639Z,1.10
2022-11-29T08:49:12.536Z,1.10
2022-11-29T08:51:58.078Z,1.10
2022-11-29T11:37:31.801Z,1.00
2022-11-29T11:40:30.586Z,1.00
2022-11-29T11:43:21.630Z,1.00
2022-11-29T11:46:13.955Z,1.00
2022-11-29T11:49:13.277Z,1.00
2022-11-29T11:52:01.316Z,1.00
2022-11-29T11:55:00.428Z,1.00
2022-11-29T11:57:46.087Z,1.00
2022-11-29T12:01:08.131Z,1.00
2022-11-29T12:04:18.707Z,1.00
2022-11-29T12:08:06.117Z,1.00
2022-11-29T12:10:40.434Z,1.00
2022-11-29T12:13:32.209Z,1.00
2022-11-29T12:16:28.703Z,1.00
2022-11-29T12:19:25.370Z,1.00
2022-11-29T12:22:19.060Z,1.00
2022-11-29T12:25:14.361Z,0.90
2022-11-29T12:27:59.889Z,0.90
2022-11-29T12:31:25.110Z,0.90
2022-11-29T12:34:55.920Z,0.90
2022-11-29T12:38:40.736Z,0.90
2022-11-29T12:42:24.667Z,0.90
2022-11-29T12:46:05.182Z,0.90
2022-11-29T12:49:23.718Z,0.90
2022-11-29T12:52:41.633Z,0.90
2022-11-29T12:56:01.200Z,0.80
2022-11-29T12:59:10.397Z,0.90
2022-11-29T13:02:58.838Z,0.90
2022-11-29T13:06:16.535Z,0.90
2022-11-29T13:09:46.317Z,0.80
2022-11-29T13:13:13.594Z,0.80
2022-11-29T13:16:23.929Z,0.80
2022-11-29T13:19:42.850Z,0.80
2022-11-29T13:22:53.799Z,0.80
2022-11-29T13:25:44.667Z,0.80
2022-11-29T13:28:34.653Z,0.80
2022-11-29T13:31:24.081Z,0.80
2022-11-29T13:34:30.253Z,0.80
2022-11-29T13:37:55.163Z,0.80
2022-11-29T13:40:58.405Z,0.80
2022-11-29T13:44:05.890Z,0.80
2022-11-29T13:47:19.356Z,0.80
2022-11-29T13:50:37.744Z,0.80
2022-11-29T18:15:53.698Z,0.50
2022-11-29T18:18:39.974Z,0.50
2022-11-29T18:21:26.530Z,0.50
2022-11-29T18:24:12.586Z,0.50
2022-11-29T18:26:58.328Z,0.50
2022-11-29T18:29:43.681Z,0.50
2022-11-29T18:32:28.996Z,0.50
2022-11-29T18:35:14.434Z,0.50
2022-11-29T18:38:15.127Z,0.50
2022-11-29T18:41:10.750Z,0.50
2022-11-29T18:44:07.854Z,0.50
2022-11-29T18:46:53.227Z,0.50
2022-11-29T18:49:38.660Z,0.50
2022-11-29T18:52:24.138Z,0.40
2022-11-29T18:55:09.747Z,0.40
2022-11-29T18:57:55.285Z,0.50
2022-11-29T19:00:40.718Z,0.50
2022-11-29T19:03:26.224Z,0.50
2022-11-29T19:06:16.588Z,0.50
2022-11-29T19:09:02.686Z,0.40
2022-11-29T19:11:48.978Z,0.50
2022-11-29T19:14:34.808Z,0.50
2022-11-29T19:17:20.188Z,0.40
2022-11-29T19:20:07.479Z,0.40
2022-11-29T19:22:57.532Z,0.50
2022-11-29T19:25:46.244Z,0.50
2022-11-29T19:28:32.308Z,0.50
2022-11-29T19:31:21.613Z,0.50
2022-11-29T19:34:07.592Z,0.40
2022-11-29T19:36:53.297Z,0.40
2022-11-29T19:39:38.703Z,0.40
2022-11-29T19:42:24.125Z,0.40
2022-11-29T19:45:16.841Z,0.50
2022-11-29T19:48:02.896Z,0.50
2022-11-29T19:50:48.577Z,0.50
2022-11-29T19:53:34.755Z,0.50
2022-11-29T19:56:21.471Z,0.50
2022-11-29T19:59:08.484Z,0.50
2022-11-29T20:01:55.497Z,0.50
2022-11-29T20:04:41.197Z,0.50
2022-11-29T20:07:26.763Z,0.40
2022-11-29T20:10:12.230Z,0.40
2022-11-29T20:12:57.964Z,0.40
2022-11-29T20:15:43.553Z,0.40
2022-11-29T20:18:34.336Z,0.40
2022-11-29T20:21:32.377Z,0.40
2022-11-29T20:24:18.333Z,0.40
2022-11-29T20:27:04.270Z,0.40
2022-11-29T20:29:49.708Z,0.40
2022-11-29T20:32:35.578Z,0.40
2022-11-29T20:35:21.860Z,0.40
2022-11-29T20:38:37.887Z,0.40
2022-11-29T20:42:12.327Z,0.30
2022-11-29T20:45:01.396Z,0.30
2022-11-29T20:48:02.728Z,0.30
2022-11-29T20:50:57.460Z,0.30
2022-11-29T20:53:44.939Z,0.30
2022-11-29T20:56:30.167Z,0.30
2022-11-29T20:59:15.707Z,0.20
2022-11-29T21:02:01.136Z,0.20
2022-11-29T21:04:46.816Z,0.30
2022-11-29T21:07:32.400Z,0.30
2022-11-29T21:10:18.854Z,0.20
